createdAt,value
2019-04-11T00:00:23.384Z,58.00
2019-04-11T00:00:55.486Z,57.80
2019-04-11T00:01:36.100Z,57.80
2019-04-11T00:02:00.464Z,57.90
2019-04-11T00:02:32.863Z,57.80
2019-04-11T00:03:06.346Z,57.80
2019-04-11T00:03:37.600Z,57.80
2019-04-11T00:04:09.964Z,57.80
2019-04-11T00:04:42.053Z,57.70
2019-04-11T00:05:13.423Z,57.70
2019-04-11T00:05:45.306Z,57.70
2019-04-11T00:06:17.263Z,57.80
2019-04-11T00:06:49.815Z,57.70
2019-04-11T00:07:22.390Z,57.70
2019-04-11T00:07:54.317Z,57.80
2019-04-11T00:08:25.991Z,57.70
2019-04-11T00:08:58.570Z,57.70
2019-04-11T00:09:30.442Z,57.70
2019-04-11T00:10:02.063Z,57.70
2019-04-11T00:10:33.423Z,57.70
2019-04-11T00:11:05.938Z,57.80
2019-04-11T00:11:37.786Z,57.80
2019-04-11T00:12:09.012Z,57.70
2019-04-11T00:12:40.957Z,57.70
2019-04-11T00:13:19.785Z,57.80
2019-04-11T00:13:45.210Z,57.70
2019-04-11T00:14:16.428Z,57.60
2019-04-11T00:14:48.398Z,57.60
2019-04-11T00:15:20.308Z,57.60
2019-04-11T00:15:51.909Z,57.50
2019-04-11T00:16:25.456Z,57.50
2019-04-11T00:16:57.365Z,57.50
2019-04-11T00:17:30.044Z,57.50
2019-04-11T00:18:01.329Z,57.50
2019-04-11T00:18:32.562Z,57.50
2019-04-11T00:19:05.221Z,57.50
2019-04-11T00:19:37.675Z,57.50
2019-04-11T00:20:09.683Z,57.50
2019-04-11T00:20:40.958Z,57.50
2019-04-11T00:21:12.849Z,57.50
2019-04-11T00:21:44.685Z,57.50
2019-04-11T00:22:17.290Z,57.50
2019-04-11T00:22:49.917Z,57.50
2019-04-11T00:23:21.858Z,57.50
2019-04-11T00:23:54.421Z,57.50
2019-04-11T00:24:27.029Z,57.50
2019-04-11T00:24:58.974Z,57.50
2019-04-11T00:25:30.201Z,57.50
2019-04-11T00:26:02.122Z,57.50
2019-04-11T00:26:33.595Z,57.60
2019-04-11T00:27:04.875Z,57.50
2019-04-11T00:27:37.130Z,57.50
2019-04-11T00:28:09.731Z,57.50
2019-04-11T00:28:41.668Z,57.50
2019-04-11T00:29:14.268Z,57.50
2019-04-11T00:29:46.862Z,57.50
2019-04-11T00:30:18.223Z,57.50
2019-04-11T00:30:50.420Z,57.60
2019-04-11T00:31:22.966Z,57.50
2019-04-11T00:31:54.920Z,57.60
2019-04-11T00:32:27.473Z,57.60
2019-04-11T00:33:00.079Z,57.60
2019-04-11T00:33:32.105Z,57.60
2019-04-11T00:34:04.712Z,57.60
2019-04-11T00:34:37.241Z,57.50
2019-04-11T00:35:09.244Z,57.50
2019-04-11T00:35:41.862Z,57.60
2019-04-11T00:36:14.440Z,57.70
2019-04-11T00:36:46.334Z,57.50
2019-04-11T00:37:17.735Z,57.50
2019-04-11T00:37:50.099Z,57.60
2019-04-11T00:38:21.495Z,57.60
2019-04-11T00:38:52.753Z,57.60
2019-04-11T00:39:24.004Z,57.60
2019-04-11T00:39:56.191Z,57.60
2019-04-11T00:40:28.965Z,57.60
2019-04-11T00:41:01.598Z,57.60
2019-04-11T00:41:32.906Z,57.60
2019-04-11T00:42:04.223Z,57.60
2019-04-11T00:42:35.406Z,57.50
2019-04-11T00:43:07.337Z,57.60
2019-04-11T00:43:42.014Z,57.50
2019-04-11T00:44:11.619Z,57.50
2019-04-11T00:44:43.163Z,57.40
2019-04-11T00:45:14.453Z,57.40
2019-04-11T00:45:45.804Z,57.30
2019-04-11T00:46:18.110Z,57.30
2019-04-11T00:46:49.522Z,57.30
2019-04-11T00:47:20.783Z,57.20
2019-04-11T00:47:53.177Z,57.20
2019-04-11T00:48:24.519Z,57.20
2019-04-11T00:48:55.732Z,57.30
2019-04-11T00:49:26.940Z,57.30
2019-04-11T00:49:58.852Z,57.20
2019-04-11T00:50:31.522Z,57.20
2019-04-11T00:51:03.530Z,57.20
2019-04-11T00:51:34.779Z,57.20
2019-04-11T00:52:07.225Z,57.20
2019-04-11T00:52:39.161Z,57.20
2019-04-11T00:53:10.559Z,57.20
2019-04-11T00:53:42.364Z,57.20
2019-04-11T00:54:14.263Z,57.20
2019-04-11T00:54:46.899Z,57.20
2019-04-11T00:55:18.279Z,57.20
2019-04-11T00:55:49.497Z,57.30
2019-04-11T00:56:20.934Z,57.20
2019-04-11T00:56:52.631Z,57.30
2019-04-11T00:57:25.173Z,57.30
2019-04-11T00:57:57.082Z,57.30
2019-04-11T00:58:29.677Z,57.30
2019-04-11T00:59:02.387Z,57.20
2019-04-11T00:59:34.181Z,57.30
2019-04-11T01:00:06.855Z,57.20
2019-04-11T01:00:39.661Z,57.20
2019-04-11T01:01:11.406Z,57.20
2019-04-11T01:01:43.039Z,57.20
2019-04-11T01:02:15.542Z,57.30
2019-04-11T01:02:47.491Z,57.30
2019-04-11T01:03:18.708Z,57.20
2019-04-11T01:03:49.926Z,57.20
2019-04-11T01:04:21.332Z,57.20
2019-04-11T01:04:52.895Z,57.20
2019-04-11T01:05:24.147Z,57.10
2019-04-11T01:05:56.612Z,57.20
2019-04-11T01:06:28.027Z,57.20
2019-04-11T01:06:59.244Z,57.10
2019-04-11T01:07:31.114Z,57.70
2019-04-11T01:08:03.100Z,57.20
2019-04-11T01:08:34.656Z,57.10
2019-04-11T01:09:06.903Z,57.10
2019-04-11T01:09:38.168Z,57.10
2019-04-11T01:10:09.821Z,57.20
2019-04-11T01:10:41.511Z,57.10
2019-04-11T01:11:13.956Z,57.10
2019-04-11T01:11:45.808Z,57.20
2019-04-11T01:12:17.047Z,57.10
2019-04-11T01:12:49.782Z,57.20
2019-04-11T01:13:21.180Z,57.10
2019-04-11T01:13:55.291Z,57.10
2019-04-11T01:14:25.805Z,57.20
2019-04-11T01:14:57.396Z,57.20
2019-04-11T01:15:29.236Z,57.20
2019-04-11T01:16:00.778Z,57.20
2019-04-11T01:16:32.622Z,57.30
2019-04-11T01:17:06.152Z,57.20
2019-04-11T01:17:37.146Z,57.20
2019-04-11T01:18:08.459Z,57.20
2019-04-11T01:18:40.339Z,57.20
2019-04-11T01:19:11.670Z,57.20
2019-04-11T01:19:42.953Z,57.20
2019-04-11T01:20:15.317Z,57.30
2019-04-11T01:20:46.680Z,57.20
2019-04-11T01:21:17.925Z,57.20
2019-04-11T01:21:49.194Z,57.20
2019-04-11T01:22:20.374Z,57.20
2019-04-11T01:22:51.651Z,57.20
2019-04-11T01:23:22.848Z,57.20
2019-04-11T01:23:54.160Z,57.10
2019-04-11T01:24:26.012Z,57.10
2019-04-11T01:24:57.850Z,57.10
2019-04-11T01:25:29.184Z,57.10
2019-04-11T01:26:01.173Z,57.10
2019-04-11T01:26:32.998Z,57.20
2019-04-11T01:27:04.315Z,57.10
2019-04-11T01:27:36.233Z,57.20
2019-04-11T01:28:07.630Z,57.70
2019-04-11T01:28:38.820Z,57.20
2019-04-11T01:29:11.235Z,57.10
2019-04-11T01:29:43.906Z,57.10
2019-04-11T01:30:15.831Z,57.10
2019-04-11T01:30:47.239Z,57.10
2019-04-11T01:31:19.566Z,57.00
2019-04-11T01:31:51.672Z,57.00
2019-04-11T01:32:22.947Z,57.00
2019-04-11T01:32:54.887Z,57.40
2019-04-11T01:33:27.445Z,56.90
2019-04-11T01:33:58.838Z,56.90
2019-04-11T01:34:30.776Z,56.90
2019-04-11T01:35:02.224Z,56.90
2019-04-11T01:35:33.464Z,56.90
2019-04-11T01:36:04.892Z,56.90
2019-04-11T01:36:37.307Z,56.90
2019-04-11T01:37:09.252Z,56.80
2019-04-11T01:37:40.547Z,56.90
2019-04-11T01:38:12.407Z,56.80
2019-04-11T01:38:44.658Z,56.90
2019-04-11T01:39:16.848Z,56.80
2019-04-11T01:39:48.120Z,56.90
2019-04-11T01:40:19.744Z,56.90
2019-04-11T01:40:51.210Z,56.90
2019-04-11T01:41:22.935Z,56.90
2019-04-11T01:41:55.089Z,56.90
2019-04-11T01:42:27.038Z,56.90
2019-04-11T01:42:58.361Z,56.90
2019-04-11T01:43:30.683Z,56.90
2019-04-11T01:44:04.186Z,56.90
2019-04-11T01:44:35.060Z,56.90
2019-04-11T01:45:07.350Z,56.90
2019-04-11T01:45:38.933Z,56.90
2019-04-11T01:46:10.145Z,56.90
2019-04-11T01:46:42.354Z,56.80
2019-04-11T01:47:15.009Z,56.80
2019-04-11T01:47:46.922Z,56.80
2019-04-11T01:48:19.592Z,56.80
2019-04-11T01:48:52.054Z,56.90
2019-04-11T01:49:24.050Z,56.90
2019-04-11T01:49:56.566Z,56.90
2019-04-11T01:50:27.887Z,56.90
2019-04-11T01:50:59.219Z,56.90
2019-04-11T01:51:31.692Z,56.90
2019-04-11T01:52:04.746Z,56.90
2019-04-11T01:52:36.274Z,56.90
2019-04-11T01:53:08.824Z,56.90
2019-04-11T01:53:40.987Z,57.50
2019-04-11T01:54:13.276Z,56.90
2019-04-11T01:54:44.594Z,56.90
2019-04-11T01:55:16.451Z,56.90
2019-04-11T01:55:48.376Z,56.90
2019-04-11T01:56:21.088Z,56.90
2019-04-11T01:56:52.361Z,56.90
2019-04-11T01:57:23.556Z,56.90
2019-04-11T01:57:55.149Z,56.90
2019-04-11T01:58:26.767Z,56.90
2019-04-11T01:58:59.298Z,56.90
2019-04-11T01:59:31.248Z,57.00
2019-04-11T02:00:03.818Z,57.00
2019-04-11T02:00:36.442Z,57.00
2019-04-11T02:01:08.342Z,57.00
2019-04-11T02:01:39.673Z,57.00
2019-04-11T02:02:11.499Z,56.90
2019-04-11T02:02:44.224Z,56.90
2019-04-11T02:03:15.742Z,56.90
2019-04-11T02:03:47.601Z,56.80
2019-04-11T02:04:19.484Z,56.90
2019-04-11T02:04:50.819Z,56.80
2019-04-11T02:05:23.047Z,56.80
2019-04-11T02:05:54.683Z,56.70
2019-04-11T02:06:25.892Z,56.60
2019-04-11T02:06:58.341Z,56.60
2019-04-11T02:07:30.901Z,56.90
2019-04-11T02:08:02.881Z,56.60
2019-04-11T02:08:35.446Z,56.60
2019-04-11T02:09:08.026Z,56.60
2019-04-11T02:09:40.085Z,56.60
2019-04-11T02:10:12.670Z,56.60
2019-04-11T02:10:45.232Z,56.60
2019-04-11T02:11:17.187Z,56.50
2019-04-11T02:11:48.518Z,56.60
2019-04-11T02:12:20.807Z,56.60
2019-04-11T02:12:53.218Z,56.50
2019-04-11T02:13:25.743Z,56.60
2019-04-11T02:14:08.038Z,56.60
2019-04-11T02:14:31.256Z,56.60
2019-04-11T02:15:02.588Z,56.60
2019-04-11T02:15:34.560Z,56.60
2019-04-11T02:16:05.997Z,56.60
2019-04-11T02:16:37.336Z,56.60
2019-04-11T02:17:08.597Z,56.60
2019-04-11T02:17:41.082Z,56.60
2019-04-11T02:18:13.100Z,56.60
2019-04-11T02:18:44.414Z,56.70
2019-04-11T02:19:16.227Z,56.60
2019-04-11T02:19:48.082Z,56.70
2019-04-11T02:20:19.358Z,56.60
2019-04-11T02:20:51.369Z,56.60
2019-04-11T02:21:22.614Z,56.70
2019-04-11T02:21:53.868Z,56.60
2019-04-11T02:22:26.332Z,56.70
2019-04-11T02:22:59.046Z,56.70
2019-04-11T02:23:30.933Z,56.70
2019-04-11T02:24:02.233Z,56.60
2019-04-11T02:24:34.161Z,56.70
2019-04-11T02:25:05.996Z,56.60
2019-04-11T02:25:37.315Z,56.60
2019-04-11T02:26:09.957Z,56.60
2019-04-11T02:26:43.999Z,56.60
2019-04-11T02:27:14.766Z,56.60
2019-04-11T02:27:46.337Z,56.60
2019-04-11T02:28:17.526Z,56.70
2019-04-11T02:28:48.883Z,56.60
2019-04-11T02:29:20.116Z,56.60
2019-04-11T02:29:51.326Z,56.60
2019-04-11T02:30:22.974Z,56.70
2019-04-11T02:30:55.849Z,56.60
2019-04-11T02:31:28.254Z,56.70
2019-04-11T02:32:03.378Z,56.60
2019-04-11T02:32:34.411Z,56.60
2019-04-11T02:33:07.258Z,56.60
2019-04-11T02:33:38.974Z,57.30
2019-04-11T02:34:11.460Z,56.60
2019-04-11T02:34:43.908Z,56.60
2019-04-11T02:35:15.590Z,56.70
2019-04-11T02:35:49.257Z,56.70
2019-04-11T02:36:21.221Z,56.70
2019-04-11T02:36:53.706Z,56.60
2019-04-11T02:37:26.269Z,57.30
2019-04-11T02:37:59.142Z,56.60
2019-04-11T02:38:32.202Z,56.70
2019-04-11T02:39:09.888Z,56.70
2019-04-11T02:39:36.667Z,56.60
2019-04-11T02:40:08.162Z,56.80
2019-04-11T02:40:40.909Z,56.60
2019-04-11T02:41:14.076Z,56.70
2019-04-11T02:41:46.832Z,56.70
2019-04-11T02:42:19.056Z,56.60
2019-04-11T02:42:51.841Z,56.60
2019-04-11T02:43:25.222Z,56.60
2019-04-11T02:43:57.550Z,56.50
2019-04-11T02:44:39.859Z,56.50
2019-04-11T02:45:16.446Z,56.40
2019-04-11T02:45:46.668Z,56.50
2019-04-11T02:46:17.246Z,56.40
2019-04-11T02:46:50.349Z,56.40
2019-04-11T02:47:20.341Z,56.30
2019-04-11T02:47:48.659Z,56.30
2019-04-11T02:48:20.622Z,56.30
2019-04-11T02:48:54.315Z,56.30
2019-04-11T02:49:25.808Z,56.30
2019-04-11T02:49:59.432Z,56.30
2019-04-11T02:50:32.127Z,56.30
2019-04-11T02:51:05.244Z,56.30
2019-04-11T02:51:36.983Z,56.30
2019-04-11T02:52:09.857Z,56.30
2019-04-11T02:52:44.278Z,56.30
2019-04-11T02:53:16.789Z,56.30
2019-04-11T02:53:49.588Z,56.30
2019-04-11T02:54:22.399Z,56.30
2019-04-11T02:54:54.532Z,56.30
2019-04-11T02:55:27.714Z,56.40
2019-04-11T02:56:00.727Z,56.40
2019-04-11T02:56:33.418Z,56.40
2019-04-11T02:57:05.791Z,56.40
2019-04-11T02:57:38.409Z,57.00
2019-04-11T02:58:10.389Z,56.30
2019-04-11T02:58:44.003Z,56.30
2019-04-11T02:59:15.443Z,56.30
2019-04-11T02:59:48.934Z,56.40
2019-04-11T03:00:20.888Z,56.30
2019-04-11T03:00:53.653Z,56.40
2019-04-11T03:01:26.298Z,56.30
2019-04-11T03:01:58.220Z,56.30
2019-04-11T03:02:30.753Z,56.30
2019-04-11T03:03:03.667Z,56.30
2019-04-11T03:03:35.183Z,56.30
2019-04-11T03:04:07.425Z,56.40
2019-04-11T03:04:39.329Z,56.30
2019-04-11T03:05:12.055Z,56.30
2019-04-11T03:05:44.134Z,56.30
2019-04-11T03:06:17.578Z,56.30
2019-04-11T03:06:49.800Z,56.30
2019-04-11T03:07:22.711Z,56.30
2019-04-11T03:07:54.211Z,56.40
2019-04-11T03:08:26.966Z,56.30
2019-04-11T03:08:59.330Z,56.30
2019-04-11T03:09:31.339Z,56.30
2019-04-11T03:10:04.768Z,56.30
2019-04-11T03:10:37.582Z,56.30
2019-04-11T03:11:10.603Z,56.30
2019-04-11T03:11:42.954Z,56.30
2019-04-11T03:12:15.521Z,56.30
2019-04-11T03:12:48.474Z,56.30
2019-04-11T03:13:21.078Z,56.30
2019-04-11T03:13:52.739Z,56.30
2019-04-11T03:14:25.164Z,56.30
2019-04-11T03:15:21.234Z,56.30
2019-04-11T03:15:46.640Z,56.40
2019-04-11T03:16:18.716Z,56.40
2019-04-11T03:16:49.313Z,56.30
2019-04-11T03:17:17.402Z,56.30
2019-04-11T03:17:44.588Z,56.30
2019-04-11T03:18:33.358Z,56.30
2019-04-11T03:19:05.637Z,56.30
2019-04-11T03:19:33.776Z,56.30
2019-04-11T03:20:04.498Z,56.20
2019-04-11T03:20:33.689Z,56.20
2019-04-11T03:21:04.542Z,56.20
2019-04-11T03:21:36.673Z,56.10
2019-04-11T03:22:05.575Z,56.20
2019-04-11T03:22:38.427Z,56.10
2019-04-11T03:23:12.373Z,56.20
2019-04-11T03:23:44.027Z,56.20
2019-04-11T03:24:16.099Z,56.10
2019-04-11T03:24:49.165Z,56.10
2019-04-11T03:25:22.435Z,56.20
2019-04-11T03:25:54.400Z,56.20
2019-04-11T03:26:27.049Z,56.20
2019-04-11T03:27:02.259Z,56.10
2019-04-11T03:27:32.557Z,56.20
2019-04-11T03:28:05.138Z,56.10
2019-04-11T03:28:38.921Z,56.70
2019-04-11T03:29:11.162Z,56.10
2019-04-11T03:29:43.159Z,56.10
2019-04-11T03:30:19.820Z,56.10
2019-04-11T03:31:13.783Z,56.10
2019-04-11T03:32:04.879Z,56.10
2019-04-11T03:35:03.954Z,56.10
2019-04-11T03:35:20.366Z,56.10
2019-04-11T03:36:45.392Z,56.10
2019-04-11T03:37:21.113Z,56.10
2019-04-11T03:37:47.765Z,56.80
2019-04-11T03:38:18.767Z,56.10
2019-04-11T03:38:46.499Z,56.20
2019-04-11T03:39:21.301Z,56.10
2019-04-11T03:39:56.399Z,56.80
2019-04-11T03:40:27.214Z,56.10
2019-04-11T03:40:57.171Z,56.10
2019-04-11T03:41:26.701Z,56.20
2019-04-11T03:42:04.091Z,56.10
2019-04-11T03:42:35.360Z,56.10
2019-04-11T03:43:05.799Z,56.10
2019-04-11T03:43:36.704Z,56.10
2019-04-11T03:44:09.583Z,56.20
2019-04-11T03:44:39.431Z,56.10
2019-04-11T03:45:28.952Z,56.10
2019-04-11T03:46:01.421Z,56.10
2019-04-11T03:46:30.856Z,56.10
2019-04-11T03:47:02.153Z,56.20
2019-04-11T03:47:32.161Z,56.10
2019-04-11T03:48:05.887Z,56.10
2019-04-11T03:48:38.215Z,56.10
2019-04-11T03:49:03.779Z,56.10
2019-04-11T03:49:37.766Z,56.10
2019-04-11T03:50:07.713Z,56.10
2019-04-11T03:50:36.701Z,56.00
2019-04-11T03:51:08.859Z,56.00
2019-04-11T03:51:41.404Z,56.00
2019-04-11T03:52:13.139Z,56.00
2019-04-11T03:52:45.174Z,55.90
2019-04-11T03:53:17.331Z,55.90
2019-04-11T03:53:51.348Z,55.90
2019-04-11T03:54:23.120Z,55.80
2019-04-11T03:54:56.058Z,55.90
2019-04-11T03:55:28.371Z,55.80
2019-04-11T03:56:01.609Z,55.80
2019-04-11T03:56:34.911Z,55.80
2019-04-11T03:57:07.825Z,55.80
2019-04-11T03:57:39.632Z,55.80
2019-04-11T03:58:11.000Z,55.80
2019-04-11T03:58:43.618Z,55.90
2019-04-11T03:59:16.777Z,55.80
2019-04-11T03:59:48.467Z,55.90
2019-04-11T04:00:21.506Z,55.90
2019-04-11T04:00:56.757Z,55.90
2019-04-11T04:01:26.778Z,55.90
2019-04-11T04:01:59.853Z,55.90
2019-04-11T04:02:32.775Z,55.90
2019-04-11T04:03:05.975Z,55.90
2019-04-11T04:03:38.701Z,55.90
2019-04-11T04:04:11.298Z,55.90
2019-04-11T04:04:43.614Z,55.90
2019-04-11T04:05:17.395Z,55.90
2019-04-11T04:05:48.718Z,55.90
2019-04-11T04:06:21.051Z,55.90
2019-04-11T04:06:52.826Z,55.90
2019-04-11T04:07:24.302Z,55.90
2019-04-11T04:07:57.563Z,55.90
2019-04-11T04:08:31.391Z,55.90
2019-04-11T04:09:02.764Z,55.90
2019-04-11T04:09:35.311Z,55.90
2019-04-11T04:10:09.172Z,55.90
2019-04-11T04:10:39.617Z,55.90
2019-04-11T04:11:12.398Z,55.90
2019-04-11T04:11:45.040Z,55.90
2019-04-11T04:12:16.806Z,55.90
2019-04-11T04:12:48.120Z,55.90
2019-04-11T04:13:21.295Z,55.90
2019-04-11T04:13:53.989Z,55.90
2019-04-11T04:14:26.399Z,55.90
2019-04-11T04:14:59.196Z,55.90
2019-04-11T04:15:41.014Z,55.90
2019-04-11T04:16:14.756Z,55.80
2019-04-11T04:16:42.599Z,55.80
2019-04-11T04:17:11.035Z,55.90
2019-04-11T04:17:43.371Z,55.90
2019-04-11T04:18:16.428Z,55.90
2019-04-11T04:18:47.986Z,55.90
2019-04-11T04:19:20.511Z,55.90
2019-04-11T04:19:54.104Z,55.90
2019-04-11T04:20:26.765Z,55.90
2019-04-11T04:20:59.628Z,55.90
2019-04-11T04:21:31.308Z,55.80
2019-04-11T04:22:05.075Z,55.90
2019-04-11T04:22:37.777Z,55.80
2019-04-11T04:23:10.261Z,55.80
2019-04-11T04:23:43.239Z,55.80
2019-04-11T04:24:14.759Z,55.90
2019-04-11T04:24:47.677Z,55.90
2019-04-11T04:25:19.044Z,55.80
2019-04-11T04:25:51.809Z,55.80
2019-04-11T04:26:22.994Z,55.90
2019-04-11T04:26:54.622Z,55.80
2019-04-11T04:27:28.017Z,55.90
2019-04-11T04:27:59.550Z,55.80
2019-04-11T04:28:31.772Z,55.70
2019-04-11T04:29:04.438Z,55.70
2019-04-11T04:29:37.794Z,55.60
2019-04-11T04:30:10.650Z,55.60
2019-04-11T04:30:43.309Z,55.60
2019-04-11T04:31:16.174Z,55.60
2019-04-11T04:31:48.922Z,55.60
2019-04-11T04:32:20.797Z,55.60
2019-04-11T04:32:54.445Z,55.60
2019-04-11T04:33:26.638Z,55.60
2019-04-11T04:33:59.629Z,55.60
2019-04-11T04:34:31.629Z,55.50
2019-04-11T04:35:04.985Z,55.60
2019-04-11T04:35:36.725Z,55.60
2019-04-11T04:36:10.754Z,55.60
2019-04-11T04:36:42.362Z,55.60
2019-04-11T04:37:14.154Z,55.60
2019-04-11T04:37:47.470Z,55.60
2019-04-11T04:38:19.053Z,55.60
2019-04-11T04:38:50.285Z,55.60
2019-04-11T04:39:22.935Z,55.60
2019-04-11T04:40:14.876Z,55.60
2019-04-11T04:40:47.912Z,55.60
2019-04-11T04:41:12.687Z,55.60
2019-04-11T04:41:39.302Z,55.60
2019-04-11T04:42:13.414Z,55.60
2019-04-11T04:42:45.844Z,55.70
2019-04-11T04:43:14.424Z,55.70
2019-04-11T04:43:45.648Z,55.70
2019-04-11T04:44:19.060Z,55.70
2019-04-11T04:44:50.980Z,55.70
2019-04-11T04:45:23.921Z,55.70
2019-04-11T04:46:13.573Z,55.70
2019-04-11T04:46:42.322Z,55.70
2019-04-11T04:47:15.571Z,56.30
2019-04-11T04:47:44.216Z,55.70
2019-04-11T04:48:11.098Z,55.70
2019-04-11T04:48:41.136Z,55.70
2019-04-11T04:49:13.183Z,55.70
2019-04-11T04:49:45.990Z,55.60
2019-04-11T04:50:18.207Z,55.50
2019-04-11T04:50:52.374Z,55.60
2019-04-11T04:51:24.325Z,55.60
2019-04-11T04:51:56.075Z,55.70
2019-04-11T04:52:29.581Z,55.70
2019-04-11T04:53:02.577Z,55.60
2019-04-11T04:53:35.018Z,55.60
2019-04-11T04:54:07.967Z,55.60
2019-04-11T04:54:40.839Z,55.60
2019-04-11T04:55:12.890Z,55.60
2019-04-11T04:55:45.729Z,55.60
2019-04-11T04:56:22.853Z,55.60
2019-04-11T04:56:50.399Z,55.50
2019-04-11T04:57:22.208Z,55.50
2019-04-11T04:57:53.838Z,55.50
2019-04-11T04:58:26.875Z,55.40
2019-04-11T04:58:58.843Z,55.40
2019-04-11T04:59:32.010Z,55.40
2019-04-11T05:00:06.619Z,55.50
2019-04-11T05:00:37.659Z,55.40
2019-04-11T05:01:10.052Z,55.40
2019-04-11T05:01:42.112Z,55.40
2019-04-11T05:02:14.972Z,55.40
2019-04-11T05:02:47.900Z,55.40
2019-04-11T05:03:20.089Z,55.40
2019-04-11T05:03:51.400Z,55.40
2019-04-11T05:04:23.447Z,55.40
2019-04-11T05:04:56.480Z,55.40
2019-04-11T05:05:29.216Z,55.40
2019-04-11T05:06:01.554Z,55.40
2019-04-11T05:06:34.599Z,55.40
2019-04-11T05:07:07.197Z,55.30
2019-04-11T05:07:42.033Z,55.40
2019-04-11T05:08:11.910Z,56.10
2019-04-11T05:08:43.228Z,55.40
2019-04-11T05:09:14.753Z,55.40
2019-04-11T05:09:46.123Z,55.40
2019-04-11T05:10:17.429Z,55.40
2019-04-11T05:10:49.153Z,55.40
2019-04-11T05:11:20.600Z,55.40
2019-04-11T05:11:55.043Z,55.40
2019-04-11T05:12:26.302Z,55.40
2019-04-11T05:12:59.084Z,55.40
2019-04-11T05:13:32.206Z,55.40
2019-04-11T05:14:04.922Z,55.30
2019-04-11T05:14:37.232Z,55.40
2019-04-11T05:15:09.926Z,55.40
2019-04-11T05:15:42.141Z,55.40
2019-04-11T05:16:17.680Z,55.50
2019-04-11T05:16:48.214Z,55.40
2019-04-11T05:17:19.515Z,55.50
2019-04-11T05:17:51.317Z,55.50
2019-04-11T05:18:23.695Z,55.50
2019-04-11T05:18:55.326Z,55.40
2019-04-11T05:19:28.457Z,55.40
2019-04-11T05:19:59.840Z,55.50
2019-04-11T05:20:32.191Z,55.40
2019-04-11T05:21:03.508Z,55.50
2019-04-11T05:21:35.149Z,55.40
2019-04-11T05:22:06.561Z,55.50
2019-04-11T05:22:37.827Z,55.50
2019-04-11T05:23:09.011Z,55.50
2019-04-11T05:23:40.244Z,55.60
2019-04-11T05:24:12.458Z,55.60
2019-04-11T05:24:43.844Z,55.50
2019-04-11T05:25:15.042Z,55.50
2019-04-11T05:25:46.614Z,55.50
2019-04-11T05:26:17.990Z,55.60
2019-04-11T05:26:50.228Z,55.50
2019-04-11T05:27:21.540Z,55.60
2019-04-11T05:27:54.022Z,55.50
2019-04-11T05:28:25.488Z,55.60
2019-04-11T05:28:57.201Z,55.60
2019-04-11T05:29:29.228Z,55.60
2019-04-11T05:30:00.834Z,55.50
2019-04-11T05:30:32.139Z,55.60
2019-04-11T05:31:03.329Z,55.50
2019-04-11T05:31:34.520Z,55.50
2019-04-11T05:32:05.717Z,55.50
2019-04-11T05:32:37.517Z,55.50
2019-04-11T05:33:09.578Z,55.40
2019-04-11T05:33:40.936Z,55.40
2019-04-11T05:34:12.121Z,55.40
2019-04-11T05:34:43.548Z,55.30
2019-04-11T05:35:14.775Z,55.30
2019-04-11T05:35:45.959Z,55.30
2019-04-11T05:36:17.178Z,55.30
2019-04-11T05:36:48.375Z,55.20
2019-04-11T05:37:20.736Z,55.20
2019-04-11T05:37:52.019Z,55.30
2019-04-11T05:38:23.207Z,55.90
2019-04-11T05:38:54.769Z,55.20
2019-04-11T05:39:27.548Z,55.20
2019-04-11T05:39:58.960Z,55.20
2019-04-11T05:40:31.009Z,55.20
2019-04-11T05:41:02.706Z,55.20
2019-04-11T05:41:33.900Z,55.20
2019-04-11T05:42:05.417Z,55.20
2019-04-11T05:42:37.640Z,55.20
2019-04-11T05:43:09.069Z,55.20
2019-04-11T05:43:41.681Z,55.30
2019-04-11T05:44:14.552Z,55.20
2019-04-11T05:44:47.081Z,55.20
2019-04-11T05:45:21.563Z,55.20
2019-04-11T05:45:54.778Z,55.20
2019-04-11T05:46:33.395Z,55.30
2019-04-11T05:47:01.891Z,55.30
2019-04-11T05:47:31.728Z,55.30
2019-04-11T05:48:03.285Z,55.20
2019-04-11T05:48:34.771Z,55.20
2019-04-11T05:49:07.114Z,55.30
2019-04-11T05:49:40.827Z,55.30
2019-04-11T05:50:13.580Z,55.30
2019-04-11T05:50:47.851Z,55.30
2019-04-11T05:51:21.228Z,55.30
2019-04-11T05:51:53.993Z,55.30
2019-04-11T05:52:24.062Z,55.30
2019-04-11T05:52:56.631Z,55.30
2019-04-11T05:53:28.099Z,55.30
2019-04-11T05:54:01.900Z,55.30
2019-04-11T05:54:33.244Z,55.30
2019-04-11T05:55:05.021Z,55.30
2019-04-11T05:55:36.410Z,55.30
2019-04-11T05:56:09.067Z,55.30
2019-04-11T05:56:41.613Z,55.30
2019-04-11T05:57:13.269Z,55.30
2019-04-11T05:57:44.988Z,55.30
2019-04-11T05:58:16.245Z,55.40
2019-04-11T05:58:47.765Z,55.40
2019-04-11T05:59:20.412Z,55.40
2019-04-11T05:59:53.427Z,55.40
2019-04-11T06:00:25.023Z,55.40
2019-04-11T06:00:57.827Z,55.40
2019-04-11T06:01:29.179Z,55.40
2019-04-11T06:02:04.380Z,55.40
2019-04-11T06:02:33.318Z,55.40
2019-04-11T06:03:05.821Z,55.40
2019-04-11T06:03:41.110Z,55.40
2019-04-11T06:04:14.145Z,55.40
2019-04-11T06:04:42.934Z,55.40
2019-04-11T06:05:15.137Z,55.30
2019-04-11T06:05:46.587Z,55.30
2019-04-11T06:06:18.396Z,55.20
2019-04-11T06:06:50.623Z,55.30
2019-04-11T06:07:23.178Z,55.20
2019-04-11T06:07:57.256Z,55.20
2019-04-11T06:08:30.179Z,55.20
2019-04-11T06:09:00.847Z,55.20
2019-04-11T06:09:37.398Z,55.20
2019-04-11T06:10:11.368Z,55.20
2019-04-11T06:10:43.645Z,55.10
2019-04-11T06:11:19.292Z,55.20
2019-04-11T06:11:50.402Z,55.10
2019-04-11T06:12:21.239Z,55.10
2019-04-11T06:12:52.680Z,55.10
2019-04-11T06:13:24.654Z,55.20
2019-04-11T06:13:56.525Z,55.10
2019-04-11T06:14:27.985Z,55.20
2019-04-11T06:14:59.715Z,55.10
2019-04-11T06:15:31.280Z,55.20
2019-04-11T06:16:02.994Z,55.10
2019-04-11T06:16:41.841Z,55.10
2019-04-11T06:17:09.187Z,55.20
2019-04-11T06:17:40.757Z,55.20
2019-04-11T06:18:25.160Z,55.20
2019-04-11T06:18:45.894Z,55.20
2019-04-11T06:19:17.281Z,55.20
2019-04-11T06:19:50.031Z,55.20
2019-04-11T06:20:22.043Z,55.20
2019-04-11T06:20:53.743Z,55.10
2019-04-11T06:21:26.163Z,55.20
2019-04-11T06:21:58.131Z,55.20
2019-04-11T06:22:29.716Z,55.20
2019-04-11T06:23:03.328Z,55.10
2019-04-11T06:23:35.104Z,55.20
2019-04-11T06:24:06.444Z,55.10
2019-04-11T06:24:38.534Z,55.10
2019-04-11T06:25:11.291Z,55.10
2019-04-11T06:25:45.140Z,55.10
2019-04-11T06:26:16.655Z,55.10
2019-04-11T06:26:49.142Z,55.10
2019-04-11T06:27:20.505Z,55.10
2019-04-11T06:27:52.032Z,55.10
2019-04-11T06:28:24.264Z,55.10
2019-04-11T06:28:57.009Z,55.10
2019-04-11T06:29:29.603Z,55.10
2019-04-11T06:30:01.342Z,55.20
2019-04-11T06:30:32.996Z,55.10
2019-04-11T06:31:04.857Z,55.10
2019-04-11T06:31:38.161Z,55.10
2019-04-11T06:32:09.818Z,55.10
2019-04-11T06:32:41.029Z,55.10
2019-04-11T06:33:12.332Z,55.10
2019-04-11T06:33:44.772Z,55.10
2019-04-11T06:34:16.102Z,55.90
2019-04-11T06:34:47.294Z,55.10
2019-04-11T06:35:18.586Z,55.10
2019-04-11T06:35:50.358Z,55.00
2019-04-11T06:36:21.631Z,55.00
2019-04-11T06:36:53.024Z,55.10
2019-04-11T06:37:25.578Z,55.10
2019-04-11T06:37:56.847Z,55.10
2019-04-11T06:38:28.032Z,55.10
2019-04-11T06:38:59.311Z,55.10
2019-04-11T06:39:31.477Z,55.10
2019-04-11T06:40:02.763Z,55.10
2019-04-11T06:40:34.724Z,55.10
2019-04-11T06:41:06.292Z,55.20
2019-04-11T06:41:38.767Z,55.10
2019-04-11T06:42:10.780Z,55.10
2019-04-11T06:42:43.382Z,55.10
2019-04-11T06:43:14.648Z,55.10
2019-04-11T06:43:46.215Z,55.10
2019-04-11T06:44:17.448Z,55.10
2019-04-11T06:44:48.773Z,55.20
2019-04-11T06:45:20.305Z,55.10
2019-04-11T06:45:52.414Z,55.10
2019-04-11T06:46:25.059Z,55.10
2019-04-11T06:46:59.516Z,55.10
2019-04-11T06:47:29.660Z,55.00
2019-04-11T06:48:01.036Z,55.00
2019-04-11T06:48:32.327Z,55.00
2019-04-11T06:49:04.487Z,54.90
2019-04-11T06:49:36.309Z,54.90
2019-04-11T06:50:07.653Z,54.80
2019-04-11T06:50:39.659Z,54.80
2019-04-11T06:51:11.602Z,54.80
2019-04-11T06:51:42.862Z,54.80
2019-04-11T06:52:14.869Z,54.80
2019-04-11T06:52:46.478Z,54.80
2019-04-11T06:53:18.952Z,54.70
2019-04-11T06:53:50.566Z,54.80
2019-04-11T06:54:21.750Z,54.80
2019-04-11T06:54:53.889Z,54.80
2019-04-11T06:55:25.333Z,54.90
2019-04-11T06:55:57.311Z,54.90
2019-04-11T06:56:29.357Z,54.90
2019-04-11T06:57:01.256Z,54.90
2019-04-11T06:57:32.614Z,54.80
2019-04-11T06:58:04.754Z,54.90